Flight Track Log - Related Links

Times and Time Zones

All times are in EDT time to prevent confusion due to time zone crossing. See the N1926Y flight status page for this flight to view local times or setup timezone preferences in your user account.

Time Position Orientation Groundspeed Altitude Reporting Facility
EDT Latitude Longitude Course Direction KTS MPH feet Rate Location/Type
Mon 10:35:08 AM 38.3200 -81.5617 137° Southeast 97 112 2,900  Level Indianapolis Center
Mon 10:36:10 AM 38.3117 -81.5278 107° East 105 121 3,400 439 Climbing Indianapolis Center
Mon 10:37:11 AM 38.3319 -81.4978 49° Northeast 111 128 3,800 443 Climbing Indianapolis Center
Mon 10:38:00 AM 38.4690 -81.2923 63° Northeast  Level FlightAware Approximate
Mon 10:38:12 AM 38.3561 -81.4731 39° Northeast 111 128 4,300  Level Indianapolis Center
Mon 10:39:00 AM 38.4877 -81.2447 63° Northeast  Level FlightAware Approximate
Mon 10:39:14 AM 38.3814 -81.4336 51° Northeast 118 136 4,900  Level Indianapolis Center
Mon 10:40:15 AM 38.3997 -81.3983 56° Northeast 120 138 5,400 439 Climbing Indianapolis Center
Mon 10:41:17 AM 38.4147 -81.3550 66° East 130 150 5,800 537 Climbing Indianapolis Center
Mon 10:42:18 AM 38.4300 -81.3194 61° Northeast 118 136 6,500 585 Climbing Indianapolis Center
Mon 10:43:20 AM 38.4406 -81.2872 67° East 101 116 7,000 293 Climbing Indianapolis Center
Mon 10:44:21 AM 38.4550 -81.2472 65° Northeast 121 139 7,100 49 Climbing Indianapolis Center
Mon 10:45:23 AM 38.4750 -81.2000 62° Northeast 147 169 7,100  Level Indianapolis Center
Mon 10:46:24 AM 38.4931 -81.1494 65° Northeast 156 180 7,100  Level Indianapolis Center
Mon 10:47:26 AM 38.5156 -81.0889 65° Northeast 157 181 7,100  Level Indianapolis Center
Mon 10:48:27 AM 38.5347 -81.0381 64° Northeast 159 183 7,100  Level Indianapolis Center
Mon 10:49:29 AM 38.5533 -80.9861 65° Northeast 160 184 7,100  Level Indianapolis Center
Mon 10:50:30 AM 38.5722 -80.9367 64° Northeast 157 181 7,100  Level Indianapolis Center
Mon 10:51:32 AM 38.5914 -80.8856 64° Northeast 158 182 7,100 244 Level Indianapolis Center
Mon 10:52:33 AM 38.6092 -80.8378 65° Northeast 151 174 7,600 537 Climbing Indianapolis Center
Mon 10:53:35 AM 38.6231 -80.7994 65° Northeast 124 143 8,200 537 Climbing Indianapolis Center
Mon 10:54:36 AM 38.6347 -80.7672 65° Northeast 105 121 8,700 439 Climbing Indianapolis Center
Mon 10:55:38 AM 38.6494 -80.7261 65° Northeast 108 124 9,100 195 Climbing Indianapolis Center
Mon 10:56:39 AM 38.6653 -80.6836 64° Northeast 127 146 9,100  Level Indianapolis Center
Mon 10:57:41 AM 38.6842 -80.6361 63° Northeast 147 169 9,100  Level Indianapolis Center
Mon 10:58:42 AM 38.7017 -80.5869 65° Northeast 153 176 9,100  Level Indianapolis Center
Mon 10:59:44 AM 38.7197 -80.5369 65° Northeast 153 176 9,100  Level Indianapolis Center
Mon 11:00:45 AM 38.7386 -80.4875 64° Northeast 154 177 9,100  Level Indianapolis Center
Mon 11:01:47 AM 38.7561 -80.4353 67° East 157 181 9,100  Level Indianapolis Center
Mon 11:02:48 AM 38.7753 -80.3844 64° Northeast 159 183 9,100  Level Indianapolis Center
Mon 11:03:50 AM 38.7931 -80.3347 65° Northeast 155 178 9,100  Level Indianapolis Center
Mon 11:04:51 AM 38.8150 -80.2750 65° Northeast 155 178 9,100  Level Indianapolis Center
Mon 11:06:00 AM 38.8357 -80.2212 64° Northeast  Level FlightAware Approximate
Mon 11:13:00 AM 38.9615 -79.8932 64° Northeast  Level FlightAware Approximate
Mon 11:14:00 AM 38.9794 -79.8462 64° Northeast  Level FlightAware Approximate
Mon 11:15:00 AM 38.9972 -79.7992 64° Northeast  Level FlightAware Approximate
Mon 11:16:00 AM 39.0151 -79.7523 64° Northeast  Level FlightAware Approximate
Mon 11:17:00 AM 39.0329 -79.7052 64° Northeast  Level FlightAware Approximate
Mon 11:17:25 AM 39.0428 -79.6542 64° Northeast 152 175 9,100  Level Washington Center
Mon 11:18:00 AM 39.0507 -79.6582 64° Northeast  Level FlightAware Approximate
Mon 11:18:26 AM 39.0611 -79.6069 63° Northeast 158 182 9,100  Level Washington Center
Mon 11:19:00 AM 39.0685 -79.6111 64° Northeast  Level FlightAware Approximate
Mon 11:19:27 AM 39.0772 -79.5597 66° East 158 182 9,100  Level Washington Center
Mon 11:20:00 AM 39.0863 -79.5640 64° Northeast  Level FlightAware Approximate
Mon 11:20:25 AM 39.0956 -79.5125 63° Northeast 153 176 9,100  Level Washington Center
Mon 11:21:00 AM 39.1040 -79.5169 64° Northeast  Level FlightAware Approximate
Mon 11:21:25 AM 39.1139 -79.4628 65° Northeast 153 176 9,100  Level Washington Center
Mon 11:22:00 AM 39.1218 -79.4697 64° Northeast  Level FlightAware Approximate
Mon 11:22:26 AM 39.1319 -79.4128 65° Northeast 148 170 9,100  Level Washington Center
Mon 11:23:26 AM 39.1481 -79.3656 66° East 148 170 9,100  Level Washington Center
Mon 11:24:27 AM 39.1664 -79.3156 65° Northeast 148 170 9,100  Level Washington Center
Mon 11:25:25 AM 39.1825 -79.2656 67° East 148 170 9,100  Level Washington Center
Mon 11:26:25 AM 39.1967 -79.2100 72° East 148 170 9,100  Level Washington Center
Mon 11:27:26 AM 39.2128 -79.1600 67° East 148 170 9,100  Level Washington Center
Mon 11:28:27 AM 39.2308 -79.1125 64° Northeast 148 170 9,100  Level Washington Center
Mon 11:29:27 AM 39.2489 -79.0650 64° Northeast 148 170 9,100  Level Washington Center
Mon 11:30:28 AM 39.2692 -79.0153 62° Northeast 148 170 9,100  Level Washington Center
Mon 11:31:25 AM 39.2892 -78.9733 58° Northeast 148 170 9,100  Level Washington Center
Mon 11:32:25 AM 39.3092 -78.9258 61° Northeast 148 170 9,100  Level Washington Center
Mon 11:33:26 AM 39.3314 -78.8786 59° Northeast 148 170 9,100  Level Washington Center
Mon 11:34:27 AM 39.3533 -78.8339 58° Northeast 148 170 9,100  Level Washington Center
Mon 11:35:28 AM 39.3711 -78.7944 60° Northeast 143 165 9,100  Level Washington Center
Mon 11:36:25 AM 39.3931 -78.7497 58° Northeast 138 159 9,100  Level Washington Center
Mon 11:37:38 AM 39.4131 -78.7050 60° Northeast 138 159 9,100  Level Washington Center
Mon 11:38:38 AM 39.4394 -78.6497 58° Northeast 138 159 9,100  Level Washington Center
Mon 11:39:39 AM 39.4572 -78.6047 63° Northeast 138 159 9,100 -50 Level Washington Center
Mon 11:40:37 AM 39.4814 -78.5572 57° Northeast 138 159 9,000 -50 Descending Washington Center
Mon 11:41:38 AM 39.5011 -78.5125 60° Northeast 138 159 9,000  Level Washington Center
Mon 11:42:39 AM 39.5208 -78.4700 59° Northeast 138 159 9,000  Level Washington Center
Mon 11:43:37 AM 39.5431 -78.4225 59° Northeast 138 159 9,000  Level Washington Center
Mon 11:44:37 AM 39.5647 -78.3778 58° Northeast 138 159 9,000  Level Washington Center
Mon 11:45:37 AM 39.5847 -78.3300 61° Northeast 138 159 9,000  Level Washington Center
Mon 11:46:38 AM 39.6067 -78.2822 59° Northeast 138 159 9,000  Level Washington Center
Mon 11:47:39 AM 39.6286 -78.2347 59° Northeast 138 159 9,000  Level Washington Center
Mon 11:48:39 AM 39.6503 -78.1869 59° Northeast 138 159 9,000  Level Washington Center
Mon 11:50:10 AM 39.6869 -78.1122 57° Northeast 147 169 9,000  Level New York Center
Mon 11:51:12 AM 39.7086 -78.0631 60° Northeast 147 169 9,000  Level New York Center
Mon 11:52:13 AM 39.7303 -78.0167 59° Northeast 147 169 9,000  Level New York Center
Mon 11:53:11 AM 39.7500 -77.9675 62° Northeast 147 169 9,000  Level New York Center
Mon 11:54:12 AM 39.7736 -77.9214 56° Northeast 152 175 9,000  Level New York Center
Mon 11:55:10 AM 39.7933 -77.8719 63° Northeast 152 175 9,000 202 Level New York Center
Mon 11:56:11 AM 39.8125 -77.8306 59° Northeast 152 175 9,400 446 Climbing New York Center
Mon 11:57:11 AM 39.8314 -77.7947 56° Northeast 133 153 9,900 347 Climbing New York Center
Mon 11:58:12 AM 39.8564 -77.7619 45° Northeast 126 145 10,100 101 Climbing New York Center
Mon 11:59:10 AM 39.8833 -77.7294 43° Northeast 121 139 10,100 -50 Level New York Center
Mon 12:00:11 PM 39.9106 -77.6889 49° Northeast 133 153 10,000 -49 Descending New York Center
Mon 12:01:12 PM 39.9381 -77.6483 49° Northeast 138 159 10,000 50 Level New York Center
Mon 12:02:10 PM 39.9653 -77.6103 47° Northeast 138 159 10,100 51 Climbing New York Center
Mon 12:03:10 PM 39.9928 -77.5669 50° Northeast 149 171 10,100  Level New York Center
Mon 12:04:11 PM 40.0178 -77.5314 47° Northeast 142 163 10,100 -49 Level New York Center
Mon 12:05:12 PM 40.0472 -77.4908 47° Northeast 142 163 10,000  Descending New York Center
Mon 12:06:12 PM 40.0719 -77.4578 46° Northeast 137 158 10,100 51 Climbing New York Center
Mon 12:07:10 PM 40.0994 -77.4169 49° Northeast 132 152 10,100  Level New York Center
Mon 12:08:11 PM 40.1219 -77.3839 48° Northeast 132 152 10,100  Level New York Center
Mon 12:09:11 PM 40.1514 -77.3433 46° Northeast 132 152 10,100  Level New York Center
Mon 12:10:13 PM 40.1761 -77.3103 46° Northeast 132 152 10,100  Level New York Center
Mon 12:11:10 PM 40.2056 -77.2669 48° Northeast 132 152 10,100 -51 Level New York Center
Mon 12:12:10 PM 40.2286 -77.2308 50° Northeast 138 159 10,000  Descending New York Center
Mon 12:13:12 PM 40.2600 -77.1875 46° Northeast 138 159 10,100 49 Climbing New York Center
Mon 12:14:12 PM 40.2850 -77.1517 48° Northeast 138 159 10,100  Level New York Center
Mon 12:15:13 PM 40.3167 -77.1056 48° Northeast 144 166 10,100  Level New York Center
Mon 12:16:10 PM 40.3417 -77.0672 49° Northeast 144 166 10,100  Level New York Center
Mon 12:17:11 PM 40.3731 -77.0236 47° Northeast 149 171 10,100 -49 Level New York Center
Mon 12:18:13 PM 40.3978 -76.9878 48° Northeast 149 171 10,000  Descending New York Center
Mon 12:19:11 PM 40.4294 -76.9414 48° Northeast 149 171 10,100 50 Climbing New York Center
Mon 12:20:12 PM 40.4525 -76.9025 52° Northeast 149 171 10,100  Level New York Center
Mon 12:21:12 PM 40.4681 -76.8439 71° East 149 171 10,100  Level New York Center
Mon 12:22:11 PM 40.4831 -76.7906 70° East 149 171 10,100  Level New York Center
Mon 12:23:11 PM 40.4961 -76.7428 70° East 149 171 10,100  Level New York Center
Mon 12:24:12 PM 40.5136 -76.6842 69° East 149 171 10,100  Level New York Center
Mon 12:25:12 PM 40.5283 -76.6364 68° East 149 171 10,100  Level New York Center
Mon 12:26:10 PM 40.5394 -76.5797 76° East 149 171 10,100  Level New York Center
Mon 12:27:10 PM 40.5606 -76.5325 60° Northeast 149 171 10,100  Level New York Center
Mon 12:28:11 PM 40.5842 -76.4797 59° Northeast 155 178 10,100 -49 Level New York Center
Mon 12:29:12 PM 40.6011 -76.4264 67° East 150 173 10,000  Descending New York Center
Mon 12:30:10 PM 40.6078 -76.3750 80° East 150 173 10,100  Climbing New York Center
Mon 12:31:11 PM 40.6122 -76.3233 84° East 144 166 10,000 -295 Descending New York Center
Mon 12:32:12 PM 40.6294 -76.2675 68° East 149 171 9,500 -496 Descending New York Center
Mon 12:33:12 PM 40.6450 -76.2031 72° East 159 183 9,000 -248 Descending New York Center
Mon 12:34:13 PM 40.6597 -76.1522 69° East 159 183 9,000  Level New York Center
Mon 12:35:10 PM 40.6728 -76.0986 72° East 154 177 9,000 -359 Level New York Center
Mon 12:36:10 PM 40.6875 -76.0475 69° East 154 177 8,300 -694 Descending New York Center
Mon 12:37:11 PM 40.7025 -75.9914 71° East 154 177 7,600 -585 Descending New York Center
Mon 12:38:13 PM 40.7153 -75.9403 72° East 154 177 7,100 -454 Descending New York Center
Mon 12:39:10 PM 40.7297 -75.8892 70° East 154 177 6,700 -513 Descending New York Center
Mon 12:40:10 PM 40.7450 -75.8300 71° East 149 171 6,100 -496 Descending New York Center
Mon 12:41:11 PM 40.7597 -75.7736 71° East 154 177 5,700 -496 Descending New York Center
Mon 12:42:11 PM 40.7747 -75.7172 71° East 160 184 5,100 -347 Descending New York Center
Mon 12:43:12 PM 40.7869 -75.6714 71° East 160 184 5,000 -49 Descending New York Center
Mon 12:44:13 PM 40.8017 -75.6206 69° East 155 178 5,000  Level New York Center
Mon 12:46:00 PM 40.8202 -75.5305 75° East  Level FlightAware Approximate
Mon 12:53:00 PM 40.9052 -75.1807 72° East  Level FlightAware Approximate
Mon 12:54:00 PM 40.9176 -75.1309 72° East  Level FlightAware Approximate
Mon 12:54:33 PM 40.9500 -75.0833 72° East 146 168 5,000  Level New York TRACON
Mon 12:55:00 PM 40.9300 -75.0811 72° East  Level FlightAware Approximate
Mon 12:55:33 PM 40.9500 -75.0333 90° East 145 167 5,000  Level New York TRACON
Mon 12:56:00 PM 40.9424 -75.0313 72° East  Level FlightAware Approximate
Mon 12:56:33 PM 40.9500 -74.9833 90° East 150 173 5,000  Level New York TRACON
Mon 12:57:00 PM 40.9548 -74.9814 72° East  Level FlightAware Approximate
Mon 12:57:33 PM 40.9667 -74.9333 66° East 145 167 5,000  Level New York TRACON
Mon 12:58:00 PM 40.9671 -74.9316 72° East  Level FlightAware Approximate
Mon 12:58:33 PM 40.9667 -74.8833 90° East 143 165 5,000  Level New York TRACON
Mon 12:59:00 PM 40.9796 -74.8818 72° East  Level FlightAware Approximate
Mon 12:59:27 PM 40.9833 -74.8333 66° East 150 173 4,400  Level New York TRACON
Mon 01:00:27 PM 40.9833 -74.7667 90° East 150 173 3,700 -684 Descending New York TRACON
Mon 01:01:21 PM 40.9833 -74.7333 90° East 146 168 3,100 -300 Descending New York TRACON
Mon 01:02:27 PM 41.0000 -74.6667 72° East 143 165 3,100 -50 Level New York TRACON
Mon 01:03:21 PM 41.0000 -74.6333 90° East 143 165 3,000 -50 Descending New York TRACON
Mon 01:04:27 PM 41.0167 -74.5667 72° East 143 165 3,000 50 Level New York TRACON
Mon 01:05:21 PM 41.0167 -74.5333 90° East 140 161 3,100 53 Climbing New York TRACON
Mon 01:06:21 PM 41.0333 -74.4833 66° East 143 165 3,100  Level New York TRACON
Mon 01:07:21 PM 41.0333 -74.4333 90° East 146 168 3,100 -50 Level New York TRACON
Mon 01:08:21 PM 41.0500 -74.3833 66° East 135 155 3,000  Descending New York TRACON
Mon 01:09:21 PM 41.0500 -74.3333 90° East 137 158 3,100  Climbing New York TRACON
Mon 01:10:21 PM 41.0833 -74.3000 37° Northeast 139 160 3,000 -50 Descending New York TRACON
Mon 01:11:21 PM 41.0833 -74.2500 90° East 123 142 3,000  Level New York TRACON
Mon 01:12:21 PM 41.0667 -74.2167 124° Southeast 112 129 3,000  Level New York TRACON
Mon 01:13:15 PM 41.0333 -74.2000 159° South 117 135 3,000  Level New York TRACON
Mon 01:14:15 PM 41.0167 -74.2000 180° South 113 130 3,000 -200 Level New York TRACON
Mon 01:15:15 PM 40.9833 -74.2000 180° South 103 119 2,600 -650 Descending New York TRACON
Mon 01:16:15 PM 40.9500 -74.2167 201° Southwest 99 114 1,700 -800 Descending New York TRACON
Mon 01:17:15 PM 40.9333 -74.2333 217° Southwest 96 110 1,000 -400 Descending New York TRACON
Mon 01:18:15 PM 40.9167 -74.2500 217° Southwest 96 110 900 -100 Descending New York TRACON
Mon 01:20:00 PM 40.8667 -74.2667 199° South  Level FlightAware Approximate
Mon 01:27:00 PM 40.8752 -74.2814 199° South  Level Estimated
Mon 01:28:00 PM 40.8752 -74.2814 199° South  Level Estimated
Mon 01:29:00 PM 40.8752 -74.2814 199° South  Level Estimated

Login

Don't have an account? Register now (free) for customized features, flight alerts, and more!